Time;durP1;ratioP1;P1;durP2;ratioP2;P2;SDS_P1;SDS_P2;PMS_P1;PMS_P2;Temp;Humidity;BMP_temperature;BMP_pressure;BME280_temperature;BME280_humidity;BME280_pressure;Samples;Min_cycle;Max_cycle;Signal;HPM_P1;HPM_P2
2024/03/30 00:00:52;;;;;;;2.45;1.83;;;;;;;9.67;100.00;98457.47;5032879;28;20045;-68
2024/03/30 00:03:19;;;;;;;1.92;1.80;;;;;;;9.74;100.00;98453.13;5032928;28;20046;-67
2024/03/30 00:05:45;;;;;;;3.33;2.15;;;;;;;9.73;100.00;98453.28;5016357;28;20060;-68
2024/03/30 00:08:12;;;;;;;1.98;1.80;;;;;;;9.81;100.00;98461.97;5032170;28;20045;-68
2024/03/30 00:10:39;;;;;;;2.28;1.92;;;;;;;9.85;100.00;98468.59;5015994;28;20056;-68
2024/03/30 00:13:05;;;;;;;4.03;1.73;;;;;;;9.88;100.00;98460.25;5016272;28;20427;-68
2024/03/30 00:15:32;;;;;;;2.13;1.83;;;;;;;9.85;100.00;98465.09;5048783;28;20416;-67
2024/03/30 00:18:01;;;;;;;2.20;2.00;;;;;;;9.92;100.00;98477.44;5033306;28;20388;-69
2024/03/30 00:20:27;;;;;;;3.00;2.25;;;;;;;9.85;100.00;98465.09;5032075;28;20045;-67
2024/03/30 00:22:53;;;;;;;3.83;2.20;;;;;;;9.72;100.00;98478.13;5015555;28;20391;-68
2024/03/30 00:25:20;;;;;;;2.47;2.20;;;;;;;9.74;100.00;98479.63;5015439;28;20135;-68
2024/03/30 00:27:47;;;;;;;2.95;2.20;;;;;;;9.71;100.00;98474.69;5016156;28;20045;-68
2024/03/30 00:30:15;;;;;;;2.75;1.90;;;;;;;9.69;100.00;98482.00;5015923;28;20049;-68
2024/03/30 00:32:41;;;;;;;1.90;1.80;;;;;;;9.69;100.00;98479.34;4999058;28;20507;-68
2024/03/30 00:35:09;;;;;;;2.25;2.05;;;;;;;9.75;100.00;98485.72;5031859;28;20388;-69
2024/03/30 00:37:36;;;;;;;3.78;1.88;;;;;;;9.72;100.00;98489.56;5037703;28;20175;-69
2024/03/30 00:40:04;;;;;;;2.38;2.08;;;;;;;9.70;100.00;98482.81;4981829;28;20053;-68
2024/03/30 00:42:30;;;;;;;3.08;2.28;;;;;;;9.61;100.00;98497.16;5030713;28;20127;-68
2024/03/30 00:44:56;;;;;;;2.30;1.90;;;;;;;9.69;100.00;98497.88;4958855;28;20126;-68
2024/03/30 00:47:22;;;;;;;3.25;1.75;;;;;;;9.67;100.00;98493.78;4991074;28;20054;-69
2024/03/30 00:49:49;;;;;;;2.00;1.80;;;;;;;9.69;100.00;98497.06;4990984;28;20046;-68
2024/03/30 00:52:15;;;;;;;3.78;1.42;;;;;;;9.70;100.00;98499.53;4990501;28;20058;-68
2024/03/30 00:54:42;;;;;;;2.35;1.80;;;;;;;9.71;100.00;98505.66;4975284;28;20065;-68
2024/03/30 00:57:08;;;;;;;1.98;1.60;;;;;;;9.72;100.00;98502.84;4991819;28;20050;-68
2024/03/30 00:59:35;;;;;;;2.10;1.88;;;;;;;9.78;100.00;98514.53;4939802;28;20149;-68
2024/03/30 01:02:00;;;;;;;2.58;1.85;;;;;;;9.75;100.00;98515.72;4955623;28;20532;-68
2024/03/30 01:04:26;;;;;;;2.35;1.95;;;;;;;9.76;100.00;98514.72;4955471;28;20070;-68
2024/03/30 01:06:52;;;;;;;3.05;1.90;;;;;;;9.72;100.00;98520.56;4939681;28;20049;-68
2024/03/30 01:09:18;;;;;;;1.90;1.67;;;;;;;9.69;100.00;98520.91;4923820;29;20558;-68
2024/03/30 01:11:44;;;;;;;1.80;1.58;;;;;;;9.68;100.00;98525.41;4964006;28;20497;-68
2024/03/30 01:14:13;;;;;;;1.90;1.70;;;;;;;9.71;100.00;98532.19;4971256;28;20063;-69
2024/03/30 01:16:39;;;;;;;2.35;1.77;;;;;;;9.68;100.00;98533.38;4971752;28;20085;-68
2024/03/30 01:19:07;;;;;;;4.15;1.77;;;;;;;9.66;100.00;98530.06;4955527;28;20047;-68
2024/03/30 01:21:33;;;;;;;1.63;1.50;;;;;;;9.59;100.00;98530.97;4994284;28;20050;-68
2024/03/30 01:23:59;;;;;;;3.03;1.60;;;;;;;9.61;100.00;98544.88;4994241;28;20145;-68
2024/03/30 01:26:25;;;;;;;3.35;1.80;;;;;;;9.54;100.00;98542.09;4994681;28;20041;-67
2024/03/30 01:28:53;;;;;;;1.90;1.70;;;;;;;9.63;100.00;98541.03;4993832;28;20122;-67
2024/03/30 01:31:21;;;;;;;1.85;1.67;;;;;;;9.55;100.00;98548.22;5007514;28;20073;-67
2024/03/30 01:33:47;;;;;;;3.80;1.58;;;;;;;9.49;100.00;98543.63;5030599;28;20151;-68
2024/03/30 01:36:13;;;;;;;1.60;1.50;;;;;;;9.48;100.00;98541.97;5031062;28;20427;-71
2024/03/30 01:38:38;;;;;;;1.73;1.63;;;;;;;9.42;100.00;98546.19;5031125;28;20076;-68
2024/03/30 01:41:04;;;;;;;1.40;1.30;;;;;;;9.44;100.00;98541.50;5032030;28;20045;-68
2024/03/30 01:43:31;;;;;;;1.88;1.58;;;;;;;9.47;100.00;98557.03;5031845;28;20128;-68
2024/03/30 01:45:57;;;;;;;2.95;1.67;;;;;;;9.41;100.00;98557.75;4997190;28;20057;-68
2024/03/30 01:48:23;;;;;;;1.80;1.70;;;;;;;9.33;100.00;98551.69;5030216;28;20079;-68
2024/03/30 01:50:50;;;;;;;1.58;1.48;;;;;;;9.37;100.00;98566.25;5014126;28;20554;-68
2024/03/30 01:53:20;;;;;;;2.53;1.80;;;;;;;9.39;100.00;98570.38;5047163;28;20132;-69
2024/03/30 01:55:48;;;;;;;1.80;1.70;;;;;;;9.32;100.00;98574.72;5030432;28;20037;-68
2024/03/30 01:58:19;;;;;;;2.45;1.85;;;;;;;9.35;100.00;98574.38;5014186;28;20499;-68
2024/03/30 02:00:46;;;;;;;3.90;1.60;;;;;;;9.28;100.00;98573.44;5030248;28;20535;-68
2024/03/30 02:03:12;;;;;;;1.83;1.40;;;;;;;9.25;100.00;98578.25;5032009;28;20041;-67
2024/03/30 02:05:38;;;;;;;2.17;1.70;;;;;;;9.23;100.00;98585.53;5014065;28;20064;-71
2024/03/30 02:08:04;;;;;;;2.13;1.50;;;;;;;9.21;100.00;98591.00;4997334;28;20053;-68
2024/03/30 02:10:30;;;;;;;2.47;1.67;;;;;;;9.17;100.00;98587.06;5012641;28;20060;-69
2024/03/30 02:12:57;;;;;;;1.73;1.63;;;;;;;9.15;100.00;98578.47;5044993;28;20056;-70
2024/03/30 02:15:23;;;;;;;1.88;1.70;;;;;;;9.12;100.00;98583.31;5028297;28;20064;-70
2024/03/30 02:17:49;;;;;;;3.53;1.60;;;;;;;9.08;100.00;98582.00;5028746;28;20044;-69
2024/03/30 02:20:15;;;;;;;2.03;1.55;;;;;;;9.06;100.00;98595.41;5012363;28;20033;-69
2024/03/30 02:23:01;;;;;;;2.60;1.92;;;;;;;9.09;100.00;98584.47;5047062;28;20064;-68
2024/03/30 02:25:27;;;;;;;2.08;1.73;;;;;;;8.97;100.00;98607.03;5031865;28;20128;-68
2024/03/30 02:27:53;;;;;;;1.80;1.70;;;;;;;8.93;100.00;98599.63;5014811;28;20133;-68
2024/03/30 02:30:26;;;;;;;2.80;1.95;;;;;;;9.01;100.00;98592.44;5031411;28;20095;-68
2024/03/30 02:32:52;;;;;;;2.90;2.22;;;;;;;8.83;100.00;98604.28;5013891;28;20048;-68
2024/03/30 02:35:18;;;;;;;2.22;1.92;;;;;;;8.81;100.00;98601.81;5030176;28;20345;-68
2024/03/30 02:37:45;;;;;;;2.08;1.75;;;;;;;8.91;100.00;98607.72;5013911;28;20037;-67
2024/03/30 02:40:11;;;;;;;3.05;1.90;;;;;;;8.80;100.00;98602.81;5031263;28;20069;-68
2024/03/30 02:42:37;;;;;;;2.10;1.90;;;;;;;8.73;100.00;98606.31;5013575;28;20134;-68
2024/03/30 02:45:03;;;;;;;1.95;1.75;;;;;;;8.67;100.00;98604.34;5032689;28;20380;-73
2024/03/30 02:47:29;;;;;;;2.53;1.80;;;;;;;8.61;100.00;98610.34;5050985;28;20159;-68
2024/03/30 02:49:55;;;;;;;1.85;1.70;;;;;;;8.59;100.00;98602.56;5017942;28;20046;-69
2024/03/30 02:52:21;;;;;;;2.03;1.83;;;;;;;8.56;100.00;98598.41;5018099;28;20047;-68
2024/03/30 02:54:48;;;;;;;1.92;1.83;;;;;;;8.58;100.00;98609.69;5034330;28;20041;-68
2024/03/30 02:57:14;;;;;;;2.25;1.48;;;;;;;8.62;100.00;98618.09;5034559;28;20052;-68
2024/03/30 02:59:41;;;;;;;2.70;1.67;;;;;;;8.55;100.00;98617.94;5050602;28;20065;-68
2024/03/30 03:02:06;;;;;;;2.10;1.45;;;;;;;8.55;100.00;98625.06;5050342;28;20948;-68
2024/03/30 03:04:32;;;;;;;1.95;1.75;;;;;;;8.58;100.00;98622.06;5034019;28;20061;-68
2024/03/30 03:06:58;;;;;;;1.65;1.55;;;;;;;8.61;100.00;98631.50;5016997;28;20038;-68
2024/03/30 03:09:24;;;;;;;2.38;1.75;;;;;;;8.56;100.00;98632.03;5049763;28;20053;-68
2024/03/30 03:11:50;;;;;;;2.08;1.65;;;;;;;8.40;100.00;98639.97;5066334;28;20103;-68
2024/03/30 03:14:15;;;;;;;2.33;1.83;;;;;;;8.39;100.00;98641.78;5016652;28;20107;-68
2024/03/30 03:16:41;;;;;;;3.60;1.90;;;;;;;8.40;100.00;98646.09;5032168;28;20158;-68
2024/03/30 03:19:08;;;;;;;3.08;2.20;;;;;;;8.38;100.00;98648.09;5034106;28;20834;-68
2024/03/30 03:21:34;;;;;;;2.05;1.77;;;;;;;8.33;100.00;98644.31;5032777;28;20051;-68
2024/03/30 03:24:00;;;;;;;2.75;1.90;;;;;;;8.37;100.00;98645.59;5033062;28;20128;-68
2024/03/30 03:26:25;;;;;;;1.80;1.70;;;;;;;8.42;100.00;98644.13;5034930;28;20075;-68
2024/03/30 03:28:51;;;;;;;3.50;2.05;;;;;;;8.49;100.00;98650.38;5034364;28;20064;-68
2024/03/30 03:31:17;;;;;;;2.08;1.80;;;;;;;8.43;100.00;98658.16;5033552;28;20042;-67
2024/03/30 03:33:43;;;;;;;2.58;2.00;;;;;;;8.41;100.00;98660.97;5033272;28;20049;-68
2024/03/30 03:36:08;;;;;;;2.85;2.00;;;;;;;8.42;100.00;98659.16;5049339;28;20041;-68
2024/03/30 03:38:34;;;;;;;1.70;1.60;;;;;;;8.50;100.00;98662.63;5049345;28;20171;-70
2024/03/30 03:41:01;;;;;;;1.90;1.63;;;;;;;8.58;100.00;98656.47;5065675;28;20472;-70
2024/03/30 03:43:28;;;;;;;3.03;1.83;;;;;;;8.64;100.00;98663.75;5049591;28;20052;-70
2024/03/30 03:45:57;;;;;;;4.97;1.98;;;;;;;8.64;100.00;98673.50;5032670;28;20049;-69
2024/03/30 03:48:24;;;;;;;3.58;1.90;;;;;;;8.70;100.00;98667.53;5016253;28;20080;-69
2024/03/30 03:50:50;;;;;;;3.10;2.30;;;;;;;8.53;100.00;98672.84;5049493;28;20049;-69
2024/03/30 03:53:16;;;;;;;4.00;2.00;;;;;;;8.45;100.00;98672.06;5016314;28;20127;-68
2024/03/30 03:55:44;;;;;;;3.03;2.03;;;;;;;8.42;100.00;98677.69;5033170;28;20033;-69
2024/03/30 03:58:10;;;;;;;3.10;2.80;;;;;;;8.40;100.00;98677.03;5049096;28;20115;-69
2024/03/30 04:00:36;;;;;;;3.58;2.00;;;;;;;8.38;100.00;98682.47;5065764;28;20452;-68
2024/03/30 04:03:02;;;;;;;2.20;2.00;;;;;;;8.35;100.00;98680.16;5033505;28;20045;-68
2024/03/30 04:05:28;;;;;;;1.80;1.65;;;;;;;8.34;100.00;98675.88;5048929;28;20041;-68
2024/03/30 04:07:53;;;;;;;3.88;2.60;;;;;;;8.32;100.00;98698.19;5033117;28;20084;-68
2024/03/30 04:10:20;;;;;;;3.28;2.20;;;;;;;8.32;100.00;98687.59;5065736;28;20049;-68
2024/03/30 04:12:50;;;;;;;5.18;2.42;;;;;;;8.49;100.00;98683.94;5032919;28;20100;-68
2024/03/30 04:15:17;;;;;;;2.78;2.30;;;;;;;8.43;100.00;98692.56;4999888;28;20128;-68
2024/03/30 04:17:43;;;;;;;2.70;2.22;;;;;;;8.38;100.00;98689.59;4999627;28;20045;-68
2024/03/30 04:20:09;;;;;;;4.22;2.28;;;;;;;8.45;100.00;98696.72;5015393;28;20046;-68
2024/03/30 04:22:37;;;;;;;2.88;2.05;;;;;;;8.49;100.00;98702.47;5032144;28;20072;-68
2024/03/30 04:25:03;;;;;;;4.78;2.00;;;;;;;8.55;100.00;98704.44;5031947;28;20111;-68
2024/03/30 04:27:29;;;;;;;2.25;1.92;;;;;;;8.60;100.00;98707.41;5015787;28;20128;-68
2024/03/30 04:29:56;;;;;;;4.43;2.30;;;;;;;8.73;100.00;98720.13;5032911;28;20137;-70
2024/03/30 04:32:22;;;;;;;2.00;1.80;;;;;;;8.67;100.00;98716.34;5015448;28;20099;-72
2024/03/30 04:34:48;;;;;;;4.78;2.08;;;;;;;8.72;100.00;98721.94;5032031;28;20041;-68
2024/03/30 04:37:14;;;;;;;4.25;2.22;;;;;;;8.76;100.00;98725.94;5032713;28;20041;-67
2024/03/30 04:39:43;;;;;;;2.38;2.03;;;;;;;8.92;100.00;98715.28;5032932;28;20054;-68
2024/03/30 04:42:10;;;;;;;2.38;2.17;;;;;;;8.88;100.00;98731.69;5065168;28;20391;-68
2024/03/30 04:44:36;;;;;;;2.30;2.10;;;;;;;8.91;100.00;98723.41;5032602;28;20129;-67
2024/03/30 04:47:03;;;;;;;3.35;2.20;;;;;;;9.01;100.00;98734.63;5032508;28;20337;-67
2024/03/30 04:49:29;;;;;;;2.97;2.13;;;;;;;9.10;100.00;98739.72;4998755;28;20045;-67
2024/03/30 04:51:55;;;;;;;7.90;2.97;;;;;;;9.16;100.00;98739.06;5031651;28;20056;-69
2024/03/30 04:54:22;;;;;;;7.40;2.80;;;;;;;9.23;100.00;98741.84;5064998;28;20080;-68
2024/03/30 04:56:48;;;;;;;3.60;2.20;;;;;;;9.27;100.00;98741.31;5048752;28;20057;-68
2024/03/30 04:59:14;;;;;;;2.58;2.35;;;;;;;9.39;100.00;98747.91;5014926;28;20049;-67
2024/03/30 05:01:40;;;;;;;2.55;2.00;;;;;;;9.44;100.00;98750.06;5065151;28;20045;-67
2024/03/30 05:04:06;;;;;;;3.60;2.15;;;;;;;9.56;100.00;98741.53;5031745;28;20041;-68
2024/03/30 05:06:33;;;;;;;4.07;2.22;;;;;;;9.76;100.00;98763.16;5047205;28;20089;-68
2024/03/30 05:09:00;;;;;;;2.47;2.00;;;;;;;9.86;100.00;98759.28;5031830;28;20546;-68
2024/03/30 05:11:26;;;;;;;3.20;2.03;;;;;;;10.17;100.00;98762.75;5015727;28;20041;-69
2024/03/30 05:13:51;;;;;;;2.13;1.75;;;;;;;10.33;100.00;98760.97;5017442;28;20052;-68
2024/03/30 05:16:18;;;;;;;3.17;1.80;;;;;;;10.44;100.00;98768.53;5033549;28;20052;-69
2024/03/30 05:18:45;;;;;;;3.72;2.00;;;;;;;10.43;100.00;98772.16;5000843;28;20048;-68
2024/03/30 05:21:11;;;;;;;2.78;2.00;;;;;;;10.55;100.00;98771.56;5023526;28;20040;-70
2024/03/30 05:23:38;;;;;;;3.10;1.80;;;;;;;10.66;100.00;98763.19;5045875;28;20584;-69
2024/03/30 05:26:06;;;;;;;4.85;1.77;;;;;;;10.73;100.00;98769.41;5061900;28;20462;-69
2024/03/30 05:28:37;;;;;;;1.88;1.60;;;;;;;10.83;100.00;98758.53;5056591;28;20037;-69
2024/03/30 05:31:05;;;;;;;2.67;1.73;;;;;;;10.79;100.00;98750.13;5079145;28;20378;-68
2024/03/30 05:33:32;;;;;;;2.85;1.85;;;;;;;10.79;100.00;98744.81;5030799;28;20044;-69
2024/03/30 05:35:57;;;;;;;3.75;1.90;;;;;;;10.86;100.00;98744.88;5044347;28;20051;-70
2024/03/30 05:38:27;;;;;;;1.70;1.58;;;;;;;11.07;100.00;98740.50;5029550;28;20036;-68
2024/03/30 05:40:55;;;;;;;7.90;2.42;;;;;;;10.95;100.00;98741.97;5040996;28;20037;-69
2024/03/30 05:43:23;;;;;;;1.60;1.50;;;;;;;11.00;100.00;98733.47;5014065;28;20559;-71
2024/03/30 05:45:56;;;;;;;2.45;2.00;;;;;;;11.13;100.00;98738.97;5001985;28;20048;-70
2024/03/30 05:48:25;;;;;;;1.83;1.50;;;;;;;11.16;100.00;98733.28;5028168;28;20044;-69
2024/03/30 05:50:54;;;;;;;4.55;2.08;;;;;;;11.13;100.00;98734.47;5026915;28;20403;-69
2024/03/30 05:53:20;;;;;;;2.63;1.90;;;;;;;11.13;100.00;98723.84;5018205;28;20047;-69
2024/03/30 05:55:46;;;;;;;1.95;1.65;;;;;;;11.14;100.00;98714.88;5041937;28;20281;-67
2024/03/30 05:58:14;;;;;;;4.35;1.80;;;;;;;11.22;100.00;98738.72;5050270;28;20236;-75
2024/03/30 06:00:42;;;;;;;2.45;1.80;;;;;;;11.28;100.00;98740.63;5023739;28;20086;-68
2024/03/30 06:03:07;;;;;;;2.03;1.63;;;;;;;11.31;100.00;98750.06;5046041;28;20048;-69
2024/03/30 06:05:35;;;;;;;3.03;1.80;;;;;;;11.46;100.00;98749.03;5006992;28;20647;-70
2024/03/30 06:08:06;;;;;;;2.90;1.95;;;;;;;11.45;100.00;98749.22;5041934;28;20052;-69
2024/03/30 06:10:32;;;;;;;3.55;2.17;;;;;;;11.55;100.00;98750.56;5031972;28;20049;-70
2024/03/30 06:12:59;;;;;;;3.03;1.90;;;;;;;11.60;100.00;98752.69;5042057;28;20034;-69
2024/03/30 06:15:25;;;;;;;2.13;1.70;;;;;;;11.70;100.00;98763.91;5015077;28;20057;-69
2024/03/30 06:17:52;;;;;;;3.17;2.17;;;;;;;11.60;100.00;98766.81;5009479;28;20575;-71
2024/03/30 06:20:18;;;;;;;4.13;1.85;;;;;;;11.77;100.00;98767.44;5029694;28;20155;-72
2024/03/30 06:22:45;;;;;;;4.78;2.47;;;;;;;11.72;100.00;98772.50;5029282;28;20091;-71
2024/03/30 06:25:11;;;;;;;5.68;2.45;;;;;;;11.87;100.00;98770.63;5048669;28;20036;-71
2024/03/30 06:27:37;;;;;;;6.10;2.97;;;;;;;11.97;100.00;98765.84;5020820;28;20052;-71
2024/03/30 06:30:06;;;;;;;4.10;2.25;;;;;;;12.19;100.00;98759.53;5014908;28;20059;-72
2024/03/30 06:32:37;;;;;;;2.97;1.63;;;;;;;12.27;100.00;98766.56;5035604;28;20052;-71
2024/03/30 06:35:06;;;;;;;3.95;2.40;;;;;;;12.18;100.00;98771.19;5033467;28;20072;-72
2024/03/30 06:37:34;;;;;;;3.17;2.00;;;;;;;12.15;100.00;98758.25;5014709;28;20155;-70
2024/03/30 06:45:31;;;;;;;2.72;2.03;;;;;;;12.38;100.00;98782.06;5010237;28;20510;-70
2024/03/30 06:47:58;;;;;;;5.70;1.98;;;;;;;12.36;100.00;98776.88;5006622;28;20125;-74
2024/03/30 06:50:24;;;;;;;7.93;2.60;;;;;;;12.33;100.00;98789.78;4972609;28;20038;-69
2024/03/30 06:52:51;;;;;;;2.92;2.10;;;;;;;12.45;100.00;98781.09;4988339;28;20042;-70
2024/03/30 06:55:18;;;;;;;4.63;2.55;;;;;;;12.30;100.00;98798.94;4957695;28;20485;-70
2024/03/30 06:57:45;;;;;;;3.47;2.20;;;;;;;12.50;100.00;98794.66;4963573;28;20061;-73
2024/03/30 07:00:12;;;;;;;10.43;2.08;;;;;;;12.65;100.00;98798.09;4947606;28;20042;-68
2024/03/30 07:02:38;;;;;;;5.68;2.38;;;;;;;12.70;100.00;98798.31;4975665;28;20041;-68
2024/03/30 07:05:08;;;;;;;6.82;2.08;;;;;;;12.84;100.00;98792.09;4975314;28;20046;-69
2024/03/30 07:07:36;;;;;;;2.80;2.05;;;;;;;12.76;100.00;98800.22;4958354;28;20388;-69
2024/03/30 07:10:04;;;;;;;3.38;1.80;;;;;;;12.93;100.00;98803.44;4970592;28;20093;-73
2024/03/30 07:12:39;;;;;;;2.65;1.98;;;;;;;13.10;100.00;98797.66;4974185;28;20627;-70
2024/03/30 07:15:06;;;;;;;3.47;1.80;;;;;;;13.23;100.00;98808.41;4961798;28;20050;-74
2024/03/30 07:17:40;;;;;;;3.15;2.10;;;;;;;13.41;100.00;98807.91;4957926;28;20572;-74
2024/03/30 07:20:12;;;;;;;9.93;2.30;;;;;;;13.42;100.00;98804.22;5024604;28;20042;-76
2024/03/30 07:22:39;;;;;;;4.47;2.20;;;;;;;13.25;100.00;98813.56;4990885;28;20033;-74
2024/03/30 07:25:09;;;;;;;6.40;1.70;;;;;;;13.81;100.00;98798.28;4964013;28;20554;-74
2024/03/30 07:27:36;;;;;;;3.45;1.73;;;;;;;13.87;100.00;98805.50;4960690;28;20046;-74
2024/03/30 07:30:07;;;;;;;4.55;2.13;;;;;;;14.01;100.00;98816.00;4975118;28;20476;-73
2024/03/30 07:32:38;;;;;;;4.20;2.70;;;;;;;14.70;100.00;98811.28;4959042;28;20077;-73
2024/03/30 07:35:09;;;;;;;7.05;3.17;;;;;;;16.43;100.00;98806.78;4974087;28;20146;-73
2024/03/30 07:37:37;;;;;;;4.63;2.78;;;;;;;19.44;86.78;98812.16;4918498;29;20120;-73
2024/03/30 07:40:05;;;;;;;2.70;2.50;;;;;;;22.68;58.98;98811.78;4903772;29;20071;-74
2024/03/30 07:42:31;;;;;;;2.78;2.58;;;;;;;25.04;44.01;98816.66;4887936;29;20071;-74
2024/03/30 07:44:58;;;;;;;5.38;3.10;;;;;;;27.34;35.08;98815.00;4887939;29;20051;-74
2024/03/30 07:47:24;;;;;;;5.38;3.03;;;;;;;28.59;29.73;98814.72;4903537;29;20423;-74
2024/03/30 07:49:52;;;;;;;3.85;2.28;;;;;;;29.20;26.07;98812.75;4887686;29;20083;-74
2024/03/30 07:52:22;;;;;;;2.25;2.05;;;;;;;30.72;25.79;98813.06;4896005;29;20059;-74
2024/03/30 07:54:49;;;;;;;3.38;2.75;;;;;;;30.75;22.27;98798.00;4890603;29;20059;-74
2024/03/30 07:57:18;;;;;;;2.78;2.38;;;;;;;31.22;22.68;98810.28;4922474;29;20055;-74
2024/03/30 07:59:45;;;;;;;2.55;2.10;;;;;;;32.61;21.31;98807.63;4913399;28;20092;-74
2024/03/30 08:02:10;;;;;;;4.20;2.50;;;;;;;32.48;19.69;98797.53;4960392;28;20594;-74
2024/03/30 08:04:36;;;;;;;5.40;3.15;;;;;;;31.87;20.34;98800.41;4944500;28;20042;-74
2024/03/30 08:07:09;;;;;;;4.13;2.10;;;;;;;33.10;19.71;98800.84;4960740;28;20129;-74
2024/03/30 08:09:36;;;;;;;3.25;2.00;;;;;;;33.11;18.97;98802.47;4957308;28;20405;-74
2024/03/30 08:12:04;;;;;;;3.30;2.28;;;;;;;32.67;18.73;98812.63;4926987;28;20062;-74
2024/03/30 08:14:31;;;;;;;2.10;2.00;;;;;;;33.19;18.71;98809.91;4974319;28;20071;-74
2024/03/30 08:16:57;;;;;;;2.58;1.83;;;;;;;33.32;17.72;98803.44;4999528;28;20488;-74
2024/03/30 08:19:24;;;;;;;2.50;2.30;;;;;;;32.82;17.68;98803.09;4982923;28;20053;-74
2024/03/30 08:21:50;;;;;;;2.42;2.30;;;;;;;33.19;18.04;98815.41;4998715;28;20099;-74
2024/03/30 08:24:16;;;;;;;2.30;2.05;;;;;;;33.78;17.24;98815.31;4999000;28;20056;-74
2024/03/30 08:26:42;;;;;;;3.10;1.88;;;;;;;35.10;16.30;98821.13;4998875;28;20041;-74
2024/03/30 08:29:09;;;;;;;2.40;2.20;;;;;;;35.71;15.60;98805.56;4999458;28;20423;-74
2024/03/30 08:31:35;;;;;;;2.42;2.30;;;;;;;35.99;15.36;98806.59;4998966;28;20038;-74
2024/03/30 08:34:02;;;;;;;3.70;1.83;;;;;;;35.20;15.64;98803.31;4983121;28;20046;-74
2024/03/30 08:36:32;;;;;;;3.97;3.57;;;;;;;33.72;16.93;98818.59;4982973;28;20063;-74
2024/03/30 08:38:58;;;;;;;2.33;2.22;;;;;;;33.92;16.39;98809.66;5031440;28;20465;-74
2024/03/30 08:41:24;;;;;;;2.13;1.95;;;;;;;32.89;16.95;98808.16;4981150;28;20049;-74
2024/03/30 08:43:50;;;;;;;2.20;2.10;;;;;;;33.11;16.65;98816.22;4982129;28;20048;-74
2024/03/30 08:46:17;;;;;;;2.85;2.08;;;;;;;30.50;18.76;98806.75;4975356;28;20054;-74
2024/03/30 08:48:44;;;;;;;2.33;2.10;;;;;;;31.87;18.08;98816.88;4975168;28;20256;-74
2024/03/30 08:51:12;;;;;;;2.30;2.20;;;;;;;31.46;18.38;98828.09;4975507;28;20069;-74
2024/03/30 08:53:38;;;;;;;2.15;2.03;;;;;;;33.11;17.17;98827.22;4959478;28;20465;-74
2024/03/30 08:56:04;;;;;;;3.58;1.83;;;;;;;34.74;15.52;98831.91;4959328;28;20145;-75
2024/03/30 08:58:32;;;;;;;2.13;2.03;;;;;;;35.50;15.31;98813.13;4959464;28;20185;-74
2024/03/30 09:00:59;;;;;;;3.30;1.90;;;;;;;35.13;14.22;98816.88;4959004;28;20054;-74
2024/03/30 09:03:25;;;;;;;1.90;1.80;;;;;;;36.37;14.30;98831.16;4975283;28;20503;-74
2024/03/30 09:05:52;;;;;;;4.43;1.80;;;;;;;37.49;13.37;98812.44;4975003;28;20059;-74
2024/03/30 09:08:17;;;;;;;2.22;2.03;;;;;;;36.61;13.60;98818.09;4991272;28;20152;-74
2024/03/30 09:10:43;;;;;;;1.27;1.20;;;;;;;36.71;13.43;98825.13;4991106;28;20656;-74
2024/03/30 09:13:09;;;;;;;1.60;1.50;;;;;;;34.18;15.05;98807.59;4994495;28;20081;-75
2024/03/30 09:15:35;;;;;;;3.70;1.70;;;;;;;34.66;14.66;98820.94;4994244;28;20485;-74
2024/03/30 09:18:02;;;;;;;3.78;2.08;;;;;;;35.81;14.39;98834.75;4961245;28;20049;-74
2024/03/30 09:20:28;;;;;;;1.52;1.42;;;;;;;36.69;13.45;98813.63;4978432;28;20048;-74
2024/03/30 09:22:54;;;;;;;1.33;0.95;;;;;;;37.44;13.04;98840.44;4982198;28;20057;-74
2024/03/30 09:25:20;;;;;;;1.17;1.17;;;;;;;37.27;13.09;98835.19;4998503;28;20156;-74
2024/03/30 09:27:46;;;;;;;1.70;1.60;;;;;;;37.46;12.99;98838.09;5031141;28;20527;-74
2024/03/30 09:30:13;;;;;;;1.58;1.48;;;;;;;36.47;13.31;98836.22;5031478;28;20049;-74
2024/03/30 09:32:43;;;;;;;1.23;1.13;;;;;;;34.72;14.63;98828.66;5031336;28;20127;-75
2024/03/30 09:35:10;;;;;;;1.92;1.65;;;;;;;33.45;15.39;98827.22;4999230;28;20056;-74
2024/03/30 09:37:37;;;;;;;2.60;1.25;;;;;;;32.61;15.84;98832.38;4982363;28;20399;-74
2024/03/30 09:40:04;;;;;;;1.67;1.58;;;;;;;32.49;16.27;98843.97;5015217;28;20127;-74
2024/03/30 09:42:40;;;;;;;1.70;1.55;;;;;;;30.89;16.73;98837.94;5031353;28;20132;-74
2024/03/30 09:45:09;;;;;;;1.58;1.48;;;;;;;29.58;18.26;98839.72;5032480;28;20068;-74
2024/03/30 09:47:41;;;;;;;3.35;2.35;;;;;;;30.46;18.07;98824.94;5015079;28;20392;-74
2024/03/30 09:50:09;;;;;;;5.50;2.97;;;;;;;30.26;17.93;98848.06;5014476;28;20052;-74
2024/03/30 09:52:39;;;;;;;1.45;1.27;;;;;;;30.66;17.99;98839.00;5030846;28;20057;-73
2024/03/30 09:55:14;;;;;;;2.45;1.35;;;;;;;30.01;18.23;98839.50;5031372;28;20091;-73
2024/03/30 09:57:42;;;;;;;1.05;0.90;;;;;;;27.85;20.42;98837.97;4999302;28;20491;-73
2024/03/30 10:00:09;;;;;;;2.60;1.33;;;;;;;27.28;21.27;98846.16;5014536;28;20049;-74
2024/03/30 10:02:39;;;;;;;7.07;1.63;;;;;;;27.16;21.29;98850.31;5030767;28;20333;-73
2024/03/30 10:05:09;;;;;;;1.77;1.30;;;;;;;27.49;21.31;98852.25;4998438;28;20495;-73
2024/03/30 10:07:45;;;;;;;1.58;1.20;;;;;;;26.64;22.01;98829.13;5014395;28;20045;-73
2024/03/30 10:10:18;;;;;;;1.50;1.40;;;;;;;27.01;21.95;98847.69;4997854;28;20060;-73
2024/03/30 10:12:53;;;;;;;3.72;1.77;;;;;;;27.78;21.35;98850.34;5014365;28;20053;-73
2024/03/30 10:15:39;;;;;;;2.55;1.85;;;;;;;28.33;20.74;98871.59;5014585;28;20057;-73
2024/03/30 10:18:05;;;;;;;2.50;1.50;;;;;;;28.61;20.48;98870.75;5014357;28;20044;-73
2024/03/30 10:20:31;;;;;;;2.17;1.98;;;;;;;29.29;19.89;98862.94;5030343;28;20103;-73
2024/03/30 10:22:58;;;;;;;2.10;2.00;;;;;;;29.64;19.75;98869.75;4993451;28;20245;-73
2024/03/30 10:25:25;;;;;;;1.75;1.63;;;;;;;29.90;19.12;98863.53;4993513;28;20054;-73
2024/03/30 10:27:52;;;;;;;2.13;1.90;;;;;;;31.07;18.21;98869.09;4995997;28;20068;-72
2024/03/30 10:30:18;;;;;;;9.88;2.92;;;;;;;32.24;17.43;98868.59;5014071;28;20046;-72
2024/03/30 10:32:45;;;;;;;2.25;2.15;;;;;;;32.66;16.84;98868.75;4995878;28;20594;-74
2024/03/30 10:35:14;;;;;;;3.17;1.70;;;;;;;32.56;16.78;98865.50;4961667;28;20481;-74
2024/03/30 10:37:42;;;;;;;;;;;;;;;32.67;17.00;98866.81;4994036;28;20120;-74
2024/03/30 10:40:09;;;;;;;2.13;1.92;;;;;;;32.58;16.95;98864.03;5010382;28;19979;-74
2024/03/30 10:42:39;;;;;;;3.65;1.70;;;;;;;31.33;17.45;98866.59;4977486;28;20539;-73
2024/03/30 10:45:06;;;;;;;;;;;;;;;32.17;17.13;98871.81;4994193;28;20089;-74
2024/03/30 10:47:33;;;;;;;1.67;1.50;;;;;;;32.25;17.09;98887.53;4977179;28;19922;-73
2024/03/30 10:50:00;;;;;;;1.30;1.10;;;;;;;30.26;18.12;98880.16;4993583;28;20762;-74
2024/03/30 10:52:28;;;;;;;1.50;1.20;;;;;;;29.25;19.18;98883.78;4976736;28;20050;-74
2024/03/30 10:54:56;;;;;;;2.40;0.80;;;;;;;27.07;20.79;98876.53;4994534;28;20579;-73
2024/03/30 10:57:28;;;;;;;3.05;0.98;;;;;;;25.47;22.67;98878.69;5015680;28;20057;-73
2024/03/30 10:59:58;;;;;;;3.53;0.90;;;;;;;23.44;25.02;98889.97;5000369;28;20041;-73
2024/03/30 11:02:24;;;;;;;1.27;1.17;;;;;;;23.03;26.23;98880.63;4997832;28;20048;-73
2024/03/30 11:04:54;;;;;;;2.90;1.48;;;;;;;21.77;27.90;98890.94;5016388;28;20091;-73
2024/03/30 11:07:23;;;;;;;2.28;1.10;;;;;;;22.24;28.02;98892.13;5001522;28;20561;-73
2024/03/30 11:09:50;;;;;;;1.65;1.08;;;;;;;22.82;27.85;98884.19;5035595;28;20491;-73
2024/03/30 11:12:17;;;;;;;2.20;1.55;;;;;;;23.13;27.61;98899.69;4993314;28;20058;-73
2024/03/30 11:14:43;;;;;;;1.63;1.42;;;;;;;22.67;28.01;98881.34;4977062;28;20489;-73
2024/03/30 11:17:31;;;;;;;3.50;1.50;;;;;;;23.56;27.45;98900.63;4945559;28;20060;-72
2024/03/30 11:20:12;;;;;;;2.47;1.35;;;;;;;23.71;26.55;98895.34;4977051;28;20178;-73
2024/03/30 11:23:26;;;;;;;3.40;0.90;;;;;;;22.51;27.75;98898.47;4977402;28;20507;-73
2024/03/30 11:26:09;;;;;;;5.55;1.40;;;;;;;22.04;29.41;98901.84;4936680;28;20046;-73
2024/03/30 11:28:50;;;;;;;3.38;1.33;;;;;;;22.21;29.76;98900.75;4960863;28;20058;-73
2024/03/30 11:31:26;;;;;;;8.18;1.48;;;;;;;21.43;29.70;98892.00;4960445;28;20061;-72
2024/03/30 11:34:04;;;;;;;1.60;1.17;;;;;;;21.33;30.55;98887.22;4971571;28;20054;-72
2024/03/30 11:37:03;;;;;;;2.55;1.15;;;;;;;21.30;30.52;98895.81;4891702;28;20051;-71
2024/03/30 11:39:35;;;;;;;1.10;0.88;;;;;;;21.11;31.17;98896.31;4923852;28;20043;-73